sensor_id;sensor_type;location;lat;lon;timestamp;P1;durP1;ratioP1;P2;durP2;ratioP2
37205;SDS011;23099;42.636;23.198;2023-03-05T00:00:05;78.13;;;32.33;;
37205;SDS011;23099;42.636;23.198;2023-03-05T00:02:32;71.95;;;32.05;;
37205;SDS011;23099;42.636;23.198;2023-03-05T00:05:01;63.92;;;28.33;;
37205;SDS011;23099;42.636;23.198;2023-03-05T00:07:27;63.70;;;28.25;;
37205;SDS011;23099;42.636;23.198;2023-03-05T00:09:54;67.55;;;30.65;;
37205;SDS011;23099;42.636;23.198;2023-03-05T00:12:20;66.75;;;32.53;;
37205;SDS011;23099;42.636;23.198;2023-03-05T00:14:47;62.78;;;29.90;;
37205;SDS011;23099;42.636;23.198;2023-03-05T00:17:14;67.80;;;29.70;;
37205;SDS011;23099;42.636;23.198;2023-03-05T00:19:40;82.68;;;36.95;;
37205;SDS011;23099;42.636;23.198;2023-03-05T00:22:08;99.00;;;40.53;;
37205;SDS011;23099;42.636;23.198;2023-03-05T00:24:35;71.70;;;33.67;;
37205;SDS011;23099;42.636;23.198;2023-03-05T00:27:02;70.70;;;33.72;;
37205;SDS011;23099;42.636;23.198;2023-03-05T00:29:29;84.00;;;39.55;;
37205;SDS011;23099;42.636;23.198;2023-03-05T00:31:55;86.40;;;37.05;;
37205;SDS011;23099;42.636;23.198;2023-03-05T00:34:22;70.72;;;33.35;;
37205;SDS011;23099;42.636;23.198;2023-03-05T00:36:50;63.90;;;31.23;;
37205;SDS011;23099;42.636;23.198;2023-03-05T00:39:19;54.58;;;27.70;;
37205;SDS011;23099;42.636;23.198;2023-03-05T00:41:46;75.97;;;33.30;;
37205;SDS011;23099;42.636;23.198;2023-03-05T00:44:13;68.05;;;31.02;;
37205;SDS011;23099;42.636;23.198;2023-03-05T00:46:40;72.05;;;30.02;;
37205;SDS011;23099;42.636;23.198;2023-03-05T00:49:07;70.53;;;31.48;;
37205;SDS011;23099;42.636;23.198;2023-03-05T00:51:34;73.43;;;33.08;;
37205;SDS011;23099;42.636;23.198;2023-03-05T00:54:00;62.50;;;29.88;;
37205;SDS011;23099;42.636;23.198;2023-03-05T00:56:29;61.58;;;29.85;;
37205;SDS011;23099;42.636;23.198;2023-03-05T00:58:55;65.32;;;30.88;;
37205;SDS011;23099;42.636;23.198;2023-03-05T01:01:22;66.85;;;32.20;;
37205;SDS011;23099;42.636;23.198;2023-03-05T01:03:49;62.95;;;30.10;;
37205;SDS011;23099;42.636;23.198;2023-03-05T01:06:16;57.53;;;28.88;;
37205;SDS011;23099;42.636;23.198;2023-03-05T01:08:44;62.92;;;29.00;;
37205;SDS011;23099;42.636;23.198;2023-03-05T01:11:11;80.95;;;33.60;;
37205;SDS011;23099;42.636;23.198;2023-03-05T01:13:39;71.88;;;31.63;;
37205;SDS011;23099;42.636;23.198;2023-03-05T01:16:06;67.00;;;31.05;;
37205;SDS011;23099;42.636;23.198;2023-03-05T01:18:33;68.88;;;30.77;;
37205;SDS011;23099;42.636;23.198;2023-03-05T01:21:00;61.85;;;30.17;;
37205;SDS011;23099;42.636;23.198;2023-03-05T01:23:27;56.70;;;27.55;;
37205;SDS011;23099;42.636;23.198;2023-03-05T01:25:54;64.65;;;28.95;;
37205;SDS011;23099;42.636;23.198;2023-03-05T01:28:21;81.63;;;33.03;;
37205;SDS011;23099;42.636;23.198;2023-03-05T01:30:49;71.93;;;31.60;;
37205;SDS011;23099;42.636;23.198;2023-03-05T01:33:16;65.70;;;30.33;;
37205;SDS011;23099;42.636;23.198;2023-03-05T01:35:44;92.55;;;34.08;;
37205;SDS011;23099;42.636;23.198;2023-03-05T01:38:11;73.57;;;31.08;;
37205;SDS011;23099;42.636;23.198;2023-03-05T01:40:38;68.90;;;29.83;;
37205;SDS011;23099;42.636;23.198;2023-03-05T01:43:07;56.00;;;27.52;;
37205;SDS011;23099;42.636;23.198;2023-03-05T01:48:51;57.42;;;27.90;;
37205;SDS011;23099;42.636;23.198;2023-03-05T01:51:21;69.20;;;30.30;;
37205;SDS011;23099;42.636;23.198;2023-03-05T01:53:51;57.90;;;28.08;;
37205;SDS011;23099;42.636;23.198;2023-03-05T01:56:18;63.85;;;29.90;;
37205;SDS011;23099;42.636;23.198;2023-03-05T01:58:46;60.42;;;28.45;;
37205;SDS011;23099;42.636;23.198;2023-03-05T02:01:14;65.70;;;31.13;;
37205;SDS011;23099;42.636;23.198;2023-03-05T02:03:42;61.25;;;28.85;;
37205;SDS011;23099;42.636;23.198;2023-03-05T02:06:09;57.13;;;28.38;;
37205;SDS011;23099;42.636;23.198;2023-03-05T02:08:36;53.28;;;27.23;;
37205;SDS011;23099;42.636;23.198;2023-03-05T02:11:03;54.97;;;25.90;;
37205;SDS011;23099;42.636;23.198;2023-03-05T02:13:31;57.28;;;27.63;;
37205;SDS011;23099;42.636;23.198;2023-03-05T02:16:00;57.22;;;27.83;;
37205;SDS011;23099;42.636;23.198;2023-03-05T02:18:27;60.17;;;28.53;;
37205;SDS011;23099;42.636;23.198;2023-03-05T02:20:59;58.65;;;29.70;;
37205;SDS011;23099;42.636;23.198;2023-03-05T02:23:28;59.58;;;30.00;;
37205;SDS011;23099;42.636;23.198;2023-03-05T02:25:58;58.03;;;29.42;;
37205;SDS011;23099;42.636;23.198;2023-03-05T02:28:26;58.37;;;29.27;;
37205;SDS011;23099;42.636;23.198;2023-03-05T02:30:57;58.33;;;28.98;;
37205;SDS011;23099;42.636;23.198;2023-03-05T02:33:24;58.05;;;29.40;;
37205;SDS011;23099;42.636;23.198;2023-03-05T02:35:50;56.80;;;27.27;;
37205;SDS011;23099;42.636;23.198;2023-03-05T02:38:19;63.38;;;29.40;;
37205;SDS011;23099;42.636;23.198;2023-03-05T02:40:46;74.07;;;33.13;;
37205;SDS011;23099;42.636;23.198;2023-03-05T02:43:13;73.82;;;30.80;;
37205;SDS011;23099;42.636;23.198;2023-03-05T02:45:39;68.20;;;30.83;;
37205;SDS011;23099;42.636;23.198;2023-03-05T02:48:06;68.25;;;31.60;;
37205;SDS011;23099;42.636;23.198;2023-03-05T02:50:33;74.35;;;32.28;;
37205;SDS011;23099;42.636;23.198;2023-03-05T02:53:00;67.60;;;32.38;;
37205;SDS011;23099;42.636;23.198;2023-03-05T02:55:28;66.60;;;29.58;;
37205;SDS011;23099;42.636;23.198;2023-03-05T02:57:55;64.53;;;30.65;;
37205;SDS011;23099;42.636;23.198;2023-03-05T03:00:22;65.00;;;32.47;;
37205;SDS011;23099;42.636;23.198;2023-03-05T03:02:49;67.30;;;31.58;;
37205;SDS011;23099;42.636;23.198;2023-03-05T03:05:15;65.30;;;30.60;;
37205;SDS011;23099;42.636;23.198;2023-03-05T03:07:42;58.67;;;28.80;;
37205;SDS011;23099;42.636;23.198;2023-03-05T03:10:09;58.95;;;30.02;;
37205;SDS011;23099;42.636;23.198;2023-03-05T03:12:38;66.03;;;29.67;;
37205;SDS011;23099;42.636;23.198;2023-03-05T03:15:06;65.32;;;28.88;;
37205;SDS011;23099;42.636;23.198;2023-03-05T03:17:35;58.53;;;28.95;;
37205;SDS011;23099;42.636;23.198;2023-03-05T03:20:02;61.27;;;29.23;;
37205;SDS011;23099;42.636;23.198;2023-03-05T03:22:30;65.90;;;29.38;;
37205;SDS011;23099;42.636;23.198;2023-03-05T03:24:56;53.92;;;24.55;;
37205;SDS011;23099;42.636;23.198;2023-03-05T03:27:23;49.05;;;23.30;;
37205;SDS011;23099;42.636;23.198;2023-03-05T03:29:51;48.88;;;23.05;;
37205;SDS011;23099;42.636;23.198;2023-03-05T03:32:18;48.08;;;21.85;;
37205;SDS011;23099;42.636;23.198;2023-03-05T03:34:44;45.53;;;22.67;;
37205;SDS011;23099;42.636;23.198;2023-03-05T03:37:12;48.40;;;23.27;;
37205;SDS011;23099;42.636;23.198;2023-03-05T03:39:39;46.70;;;22.75;;
37205;SDS011;23099;42.636;23.198;2023-03-05T03:42:06;41.00;;;19.30;;
37205;SDS011;23099;42.636;23.198;2023-03-05T03:44:33;39.50;;;19.70;;
37205;SDS011;23099;42.636;23.198;2023-03-05T03:47:01;38.88;;;17.25;;
37205;SDS011;23099;42.636;23.198;2023-03-05T03:49:27;34.72;;;16.80;;
37205;SDS011;23099;42.636;23.198;2023-03-05T03:51:54;35.78;;;16.63;;
37205;SDS011;23099;42.636;23.198;2023-03-05T03:54:22;33.45;;;15.95;;
37205;SDS011;23099;42.636;23.198;2023-03-05T03:56:49;34.58;;;18.33;;
37205;SDS011;23099;42.636;23.198;2023-03-05T03:59:16;39.67;;;17.08;;
37205;SDS011;23099;42.636;23.198;2023-03-05T04:01:43;38.35;;;18.25;;
37205;SDS011;23099;42.636;23.198;2023-03-05T04:04:11;33.83;;;16.50;;
37205;SDS011;23099;42.636;23.198;2023-03-05T04:06:39;41.10;;;16.73;;
37205;SDS011;23099;42.636;23.198;2023-03-05T04:09:06;43.05;;;19.38;;
37205;SDS011;23099;42.636;23.198;2023-03-05T04:11:33;42.42;;;17.73;;
37205;SDS011;23099;42.636;23.198;2023-03-05T04:14:00;38.63;;;18.08;;
37205;SDS011;23099;42.636;23.198;2023-03-05T04:16:27;39.35;;;18.05;;
37205;SDS011;23099;42.636;23.198;2023-03-05T04:18:53;39.50;;;18.45;;
37205;SDS011;23099;42.636;23.198;2023-03-05T04:21:21;39.15;;;17.83;;
37205;SDS011;23099;42.636;23.198;2023-03-05T04:23:48;37.90;;;17.48;;
37205;SDS011;23099;42.636;23.198;2023-03-05T04:26:15;40.40;;;18.13;;
37205;SDS011;23099;42.636;23.198;2023-03-05T04:28:41;42.03;;;17.67;;
37205;SDS011;23099;42.636;23.198;2023-03-05T04:31:08;39.65;;;17.38;;
37205;SDS011;23099;42.636;23.198;2023-03-05T04:33:35;38.20;;;17.08;;
37205;SDS011;23099;42.636;23.198;2023-03-05T04:36:01;42.35;;;17.95;;
37205;SDS011;23099;42.636;23.198;2023-03-05T04:38:29;37.97;;;17.70;;
37205;SDS011;23099;42.636;23.198;2023-03-05T04:40:56;37.25;;;17.63;;
37205;SDS011;23099;42.636;23.198;2023-03-05T04:43:23;42.53;;;16.77;;
37205;SDS011;23099;42.636;23.198;2023-03-05T04:45:49;37.75;;;16.48;;
37205;SDS011;23099;42.636;23.198;2023-03-05T04:48:16;46.55;;;18.52;;
37205;SDS011;23099;42.636;23.198;2023-03-05T04:50:43;41.25;;;18.50;;
37205;SDS011;23099;42.636;23.198;2023-03-05T04:53:09;42.85;;;17.70;;
37205;SDS011;23099;42.636;23.198;2023-03-05T04:55:37;38.03;;;16.90;;
37205;SDS011;23099;42.636;23.198;2023-03-05T04:58:04;38.08;;;17.05;;
37205;SDS011;23099;42.636;23.198;2023-03-05T05:00:31;33.55;;;15.45;;
37205;SDS011;23099;42.636;23.198;2023-03-05T05:02:57;42.20;;;17.85;;
37205;SDS011;23099;42.636;23.198;2023-03-05T05:05:25;39.25;;;16.42;;
37205;SDS011;23099;42.636;23.198;2023-03-05T05:07:53;39.30;;;17.10;;
37205;SDS011;23099;42.636;23.198;2023-03-05T05:10:21;38.92;;;17.75;;
37205;SDS011;23099;42.636;23.198;2023-03-05T05:12:50;34.33;;;17.05;;
37205;SDS011;23099;42.636;23.198;2023-03-05T05:15:16;36.67;;;16.17;;
37205;SDS011;23099;42.636;23.198;2023-03-05T05:17:43;37.25;;;15.35;;
37205;SDS011;23099;42.636;23.198;2023-03-05T05:20:12;40.53;;;16.97;;
37205;SDS011;23099;42.636;23.198;2023-03-05T05:22:40;35.28;;;15.52;;
37205;SDS011;23099;42.636;23.198;2023-03-05T05:25:07;39.72;;;16.60;;
37205;SDS011;23099;42.636;23.198;2023-03-05T05:27:34;41.00;;;16.13;;
37205;SDS011;23099;42.636;23.198;2023-03-05T05:30:03;34.88;;;15.35;;
37205;SDS011;23099;42.636;23.198;2023-03-05T05:32:31;35.60;;;16.27;;
37205;SDS011;23099;42.636;23.198;2023-03-05T05:34:58;35.63;;;15.48;;
37205;SDS011;23099;42.636;23.198;2023-03-05T05:37:25;37.05;;;15.48;;
37205;SDS011;23099;42.636;23.198;2023-03-05T05:39:52;35.75;;;14.57;;
37205;SDS011;23099;42.636;23.198;2023-03-05T05:42:20;36.22;;;14.82;;
37205;SDS011;23099;42.636;23.198;2023-03-05T05:44:48;34.88;;;13.68;;
37205;SDS011;23099;42.636;23.198;2023-03-05T05:47:17;35.28;;;13.70;;
37205;SDS011;23099;42.636;23.198;2023-03-05T05:49:44;35.03;;;14.95;;
37205;SDS011;23099;42.636;23.198;2023-03-05T05:52:10;31.33;;;14.30;;
37205;SDS011;23099;42.636;23.198;2023-03-05T05:54:37;30.83;;;14.20;;
37205;SDS011;23099;42.636;23.198;2023-03-05T05:57:04;30.70;;;12.88;;
37205;SDS011;23099;42.636;23.198;2023-03-05T05:59:31;34.28;;;13.90;;
37205;SDS011;23099;42.636;23.198;2023-03-05T06:01:58;30.08;;;13.20;;
37205;SDS011;23099;42.636;23.198;2023-03-05T06:04:26;37.15;;;13.02;;
37205;SDS011;23099;42.636;23.198;2023-03-05T06:06:52;31.10;;;12.98;;
37205;SDS011;23099;42.636;23.198;2023-03-05T06:09:19;29.20;;;11.73;;
37205;SDS011;23099;42.636;23.198;2023-03-05T06:11:46;28.25;;;12.10;;
37205;SDS011;23099;42.636;23.198;2023-03-05T06:14:13;30.98;;;11.50;;
37205;SDS011;23099;42.636;23.198;2023-03-05T06:16:39;25.52;;;11.93;;
37205;SDS011;23099;42.636;23.198;2023-03-05T06:19:07;25.45;;;11.43;;
37205;SDS011;23099;42.636;23.198;2023-03-05T06:21:35;26.65;;;12.23;;
37205;SDS011;23099;42.636;23.198;2023-03-05T06:24:02;30.30;;;11.13;;
37205;SDS011;23099;42.636;23.198;2023-03-05T06:26:29;23.05;;;10.27;;
37205;SDS011;23099;42.636;23.198;2023-03-05T06:28:56;25.55;;;11.02;;
37205;SDS011;23099;42.636;23.198;2023-03-05T06:31:23;26.33;;;9.80;;
37205;SDS011;23099;42.636;23.198;2023-03-05T06:33:51;25.35;;;10.30;;
37205;SDS011;23099;42.636;23.198;2023-03-05T06:36:19;24.02;;;10.23;;
37205;SDS011;23099;42.636;23.198;2023-03-05T06:38:49;22.48;;;10.48;;
37205;SDS011;23099;42.636;23.198;2023-03-05T06:41:16;24.02;;;9.90;;
37205;SDS011;23099;42.636;23.198;2023-03-05T06:43:45;22.80;;;9.48;;
37205;SDS011;23099;42.636;23.198;2023-03-05T06:46:13;28.13;;;9.65;;
37205;SDS011;23099;42.636;23.198;2023-03-05T06:48:41;28.08;;;9.75;;
37205;SDS011;23099;42.636;23.198;2023-03-05T06:51:11;21.40;;;10.00;;
37205;SDS011;23099;42.636;23.198;2023-03-05T06:53:38;24.55;;;9.77;;
37205;SDS011;23099;42.636;23.198;2023-03-05T06:56:07;21.17;;;9.40;;
37205;SDS011;23099;42.636;23.198;2023-03-05T06:58:33;30.95;;;10.82;;
37205;SDS011;23099;42.636;23.198;2023-03-05T07:01:00;26.65;;;9.98;;
37205;SDS011;23099;42.636;23.198;2023-03-05T07:03:30;22.08;;;9.27;;
37205;SDS011;23099;42.636;23.198;2023-03-05T07:05:57;24.17;;;10.57;;
37205;SDS011;23099;42.636;23.198;2023-03-05T07:08:23;22.50;;;10.35;;
37205;SDS011;23099;42.636;23.198;2023-03-05T07:10:50;27.23;;;12.10;;
37205;SDS011;23099;42.636;23.198;2023-03-05T07:13:18;24.85;;;11.32;;
37205;SDS011;23099;42.636;23.198;2023-03-05T07:15:45;27.80;;;11.95;;
37205;SDS011;23099;42.636;23.198;2023-03-05T07:18:11;42.65;;;18.13;;
37205;SDS011;23099;42.636;23.198;2023-03-05T07:20:38;28.17;;;12.25;;
37205;SDS011;23099;42.636;23.198;2023-03-05T07:23:05;31.08;;;12.88;;
37205;SDS011;23099;42.636;23.198;2023-03-05T07:25:34;29.15;;;13.35;;
37205;SDS011;23099;42.636;23.198;2023-03-05T07:28:01;31.42;;;14.38;;
37205;SDS011;23099;42.636;23.198;2023-03-05T07:30:30;28.67;;;13.35;;
37205;SDS011;23099;42.636;23.198;2023-03-05T07:35:24;29.13;;;12.32;;
37205;SDS011;23099;42.636;23.198;2023-03-05T07:37:51;29.15;;;12.40;;
37205;SDS011;23099;42.636;23.198;2023-03-05T07:40:19;28.42;;;12.60;;
37205;SDS011;23099;42.636;23.198;2023-03-05T07:42:47;31.55;;;14.15;;
37205;SDS011;23099;42.636;23.198;2023-03-05T07:45:13;34.03;;;15.40;;
37205;SDS011;23099;42.636;23.198;2023-03-05T07:47:41;32.15;;;15.57;;
37205;SDS011;23099;42.636;23.198;2023-03-05T07:50:08;33.35;;;15.30;;
37205;SDS011;23099;42.636;23.198;2023-03-05T07:52:36;33.58;;;15.00;;
37205;SDS011;23099;42.636;23.198;2023-03-05T07:55:03;30.75;;;14.75;;
37205;SDS011;23099;42.636;23.198;2023-03-05T07:57:30;33.90;;;16.58;;
37205;SDS011;23099;42.636;23.198;2023-03-05T07:59:56;33.70;;;15.65;;
37205;SDS011;23099;42.636;23.198;2023-03-05T08:02:23;37.58;;;16.63;;
37205;SDS011;23099;42.636;23.198;2023-03-05T08:04:51;34.60;;;15.32;;
37205;SDS011;23099;42.636;23.198;2023-03-05T08:07:18;32.78;;;16.23;;
37205;SDS011;23099;42.636;23.198;2023-03-05T08:09:44;34.05;;;16.17;;
37205;SDS011;23099;42.636;23.198;2023-03-05T08:12:11;36.90;;;15.63;;
37205;SDS011;23099;42.636;23.198;2023-03-05T08:14:38;34.90;;;15.95;;
37205;SDS011;23099;42.636;23.198;2023-03-05T08:17:04;35.13;;;15.57;;
37205;SDS011;23099;42.636;23.198;2023-03-05T08:19:32;29.85;;;15.10;;
37205;SDS011;23099;42.636;23.198;2023-03-05T08:22:00;35.10;;;16.27;;
37205;SDS011;23099;42.636;23.198;2023-03-05T08:24:27;36.25;;;17.17;;
37205;SDS011;23099;42.636;23.198;2023-03-05T08:26:54;34.15;;;17.02;;
37205;SDS011;23099;42.636;23.198;2023-03-05T08:29:21;39.28;;;17.70;;
37205;SDS011;23099;42.636;23.198;2023-03-05T08:31:48;36.20;;;16.67;;
37205;SDS011;23099;42.636;23.198;2023-03-05T08:34:18;37.38;;;17.55;;
37205;SDS011;23099;42.636;23.198;2023-03-05T08:36:45;39.38;;;19.40;;
37205;SDS011;23099;42.636;23.198;2023-03-05T08:39:14;36.85;;;20.08;;
37205;SDS011;23099;42.636;23.198;2023-03-05T08:41:41;40.67;;;15.52;;
37205;SDS011;23099;42.636;23.198;2023-03-05T08:44:07;32.85;;;15.95;;
37205;SDS011;23099;42.636;23.198;2023-03-05T08:46:34;31.83;;;15.63;;
37205;SDS011;23099;42.636;23.198;2023-03-05T08:49:01;35.50;;;16.90;;
37205;SDS011;23099;42.636;23.198;2023-03-05T08:51:28;37.15;;;17.58;;
37205;SDS011;23099;42.636;23.198;2023-03-05T08:53:56;36.75;;;17.13;;
37205;SDS011;23099;42.636;23.198;2023-03-05T08:58:52;34.03;;;16.95;;
37205;SDS011;23099;42.636;23.198;2023-03-05T09:01:19;37.80;;;17.85;;
37205;SDS011;23099;42.636;23.198;2023-03-05T09:03:46;37.67;;;16.48;;
37205;SDS011;23099;42.636;23.198;2023-03-05T09:06:13;36.63;;;16.98;;
37205;SDS011;23099;42.636;23.198;2023-03-05T09:08:40;39.42;;;17.98;;
37205;SDS011;23099;42.636;23.198;2023-03-05T09:11:07;34.67;;;16.83;;
37205;SDS011;23099;42.636;23.198;2023-03-05T09:13:38;35.83;;;16.40;;
37205;SDS011;23099;42.636;23.198;2023-03-05T09:16:06;37.40;;;16.50;;
37205;SDS011;23099;42.636;23.198;2023-03-05T09:18:36;34.90;;;16.50;;
37205;SDS011;23099;42.636;23.198;2023-03-05T09:21:04;41.10;;;18.27;;
37205;SDS011;23099;42.636;23.198;2023-03-05T09:23:31;34.55;;;17.08;;
37205;SDS011;23099;42.636;23.198;2023-03-05T09:25:59;31.85;;;15.88;;
37205;SDS011;23099;42.636;23.198;2023-03-05T09:28:25;32.00;;;15.48;;
37205;SDS011;23099;42.636;23.198;2023-03-05T09:30:53;33.05;;;16.17;;
37205;SDS011;23099;42.636;23.198;2023-03-05T09:33:20;34.03;;;16.83;;
37205;SDS011;23099;42.636;23.198;2023-03-05T09:35:47;32.33;;;15.43;;
37205;SDS011;23099;42.636;23.198;2023-03-05T09:38:13;31.95;;;16.40;;
37205;SDS011;23099;42.636;23.198;2023-03-05T09:40:42;29.63;;;14.95;;
37205;SDS011;23099;42.636;23.198;2023-03-05T09:43:17;36.72;;;17.30;;
37205;SDS011;23099;42.636;23.198;2023-03-05T09:45:57;32.67;;;16.30;;
37205;SDS011;23099;42.636;23.198;2023-03-05T09:48:37;40.20;;;18.25;;
37205;SDS011;23099;42.636;23.198;2023-03-05T09:51:15;34.90;;;16.27;;
37205;SDS011;23099;42.636;23.198;2023-03-05T09:53:48;32.65;;;16.13;;
37205;SDS011;23099;42.636;23.198;2023-03-05T09:56:19;33.28;;;16.52;;
37205;SDS011;23099;42.636;23.198;2023-03-05T09:58:49;33.83;;;16.27;;
37205;SDS011;23099;42.636;23.198;2023-03-05T10:01:21;35.38;;;16.38;;
37205;SDS011;23099;42.636;23.198;2023-03-05T10:03:54;34.38;;;16.05;;
37205;SDS011;23099;42.636;23.198;2023-03-05T10:06:23;34.80;;;16.77;;
37205;SDS011;23099;42.636;23.198;2023-03-05T10:08:53;35.97;;;16.20;;
37205;SDS011;23099;42.636;23.198;2023-03-05T10:14:15;31.20;;;15.32;;
37205;SDS011;23099;42.636;23.198;2023-03-05T10:16:53;33.85;;;15.95;;
37205;SDS011;23099;42.636;23.198;2023-03-05T10:19:40;31.17;;;14.73;;
37205;SDS011;23099;42.636;23.198;2023-03-05T10:22:26;31.00;;;15.05;;
37205;SDS011;23099;42.636;23.198;2023-03-05T10:24:58;34.95;;;15.60;;
37205;SDS011;23099;42.636;23.198;2023-03-05T10:27:38;33.38;;;15.70;;
37205;SDS011;23099;42.636;23.198;2023-03-05T10:35:48;32.42;;;15.98;;
37205;SDS011;23099;42.636;23.198;2023-03-05T10:41:31;34.17;;;17.55;;
37205;SDS011;23099;42.636;23.198;2023-03-05T10:44:08;28.13;;;15.30;;
37205;SDS011;23099;42.636;23.198;2023-03-05T10:46:40;31.05;;;15.25;;
37205;SDS011;23099;42.636;23.198;2023-03-05T10:49:13;32.28;;;14.60;;
37205;SDS011;23099;42.636;23.198;2023-03-05T10:51:46;29.45;;;14.90;;
37205;SDS011;23099;42.636;23.198;2023-03-05T10:54:18;30.73;;;16.10;;
37205;SDS011;23099;42.636;23.198;2023-03-05T10:56:49;31.00;;;15.02;;
37205;SDS011;23099;42.636;23.198;2023-03-05T10:59:16;30.05;;;15.52;;
37205;SDS011;23099;42.636;23.198;2023-03-05T11:01:42;31.13;;;14.85;;
37205;SDS011;23099;42.636;23.198;2023-03-05T11:04:29;26.95;;;14.32;;
37205;SDS011;23099;42.636;23.198;2023-03-05T11:07:00;30.05;;;14.18;;
37205;SDS011;23099;42.636;23.198;2023-03-05T11:09:31;30.98;;;15.80;;
37205;SDS011;23099;42.636;23.198;2023-03-05T11:12:03;31.88;;;15.32;;
37205;SDS011;23099;42.636;23.198;2023-03-05T11:14:36;26.67;;;14.18;;
37205;SDS011;23099;42.636;23.198;2023-03-05T11:17:21;27.83;;;13.50;;
37205;SDS011;23099;42.636;23.198;2023-03-05T11:19:53;30.27;;;14.82;;
37205;SDS011;23099;42.636;23.198;2023-03-05T11:22:20;31.73;;;14.95;;
37205;SDS011;23099;42.636;23.198;2023-03-05T11:25:01;28.70;;;14.30;;
37205;SDS011;23099;42.636;23.198;2023-03-05T11:27:33;47.03;;;19.67;;
37205;SDS011;23099;42.636;23.198;2023-03-05T11:30:02;35.25;;;16.92;;
37205;SDS011;23099;42.636;23.198;2023-03-05T11:34:58;26.40;;;12.85;;
37205;SDS011;23099;42.636;23.198;2023-03-05T11:37:25;25.83;;;12.73;;
37205;SDS011;23099;42.636;23.198;2023-03-05T11:40:04;25.52;;;12.95;;
37205;SDS011;23099;42.636;23.198;2023-03-05T11:42:43;26.20;;;13.43;;
37205;SDS011;23099;42.636;23.198;2023-03-05T11:45:13;21.92;;;12.57;;
37205;SDS011;23099;42.636;23.198;2023-03-05T11:47:43;42.97;;;16.60;;
37205;SDS011;23099;42.636;23.198;2023-03-05T11:50:15;25.52;;;12.95;;
37205;SDS011;23099;42.636;23.198;2023-03-05T11:52:46;32.22;;;15.40;;
37205;SDS011;23099;42.636;23.198;2023-03-05T11:55:16;32.13;;;16.75;;
37205;SDS011;23099;42.636;23.198;2023-03-05T11:57:45;29.17;;;13.98;;
37205;SDS011;23099;42.636;23.198;2023-03-05T12:00:19;30.25;;;15.05;;
37205;SDS011;23099;42.636;23.198;2023-03-05T12:02:53;30.10;;;15.27;;
37205;SDS011;23099;42.636;23.198;2023-03-05T12:05:23;25.95;;;14.25;;
37205;SDS011;23099;42.636;23.198;2023-03-05T12:07:52;28.70;;;13.88;;
37205;SDS011;23099;42.636;23.198;2023-03-05T12:10:23;23.58;;;11.52;;
37205;SDS011;23099;42.636;23.198;2023-03-05T12:12:52;23.75;;;12.65;;
37205;SDS011;23099;42.636;23.198;2023-03-05T12:18:25;23.70;;;11.15;;
37205;SDS011;23099;42.636;23.198;2023-03-05T12:21:01;24.48;;;11.48;;
37205;SDS011;23099;42.636;23.198;2023-03-05T12:23:46;25.65;;;13.02;;
37205;SDS011;23099;42.636;23.198;2023-03-05T12:26:14;27.02;;;13.48;;
37205;SDS011;23099;42.636;23.198;2023-03-05T12:31:35;23.20;;;11.57;;
37205;SDS011;23099;42.636;23.198;2023-03-05T12:37:10;19.33;;;9.88;;
37205;SDS011;23099;42.636;23.198;2023-03-05T12:39:45;20.92;;;10.85;;
37205;SDS011;23099;42.636;23.198;2023-03-05T12:45:24;22.35;;;10.88;;
37205;SDS011;23099;42.636;23.198;2023-03-05T12:50:57;22.45;;;11.88;;
37205;SDS011;23099;42.636;23.198;2023-03-05T12:53:25;22.10;;;11.57;;
37205;SDS011;23099;42.636;23.198;2023-03-05T12:56:00;22.73;;;13.25;;
37205;SDS011;23099;42.636;23.198;2023-03-05T12:58:37;20.80;;;10.25;;
37205;SDS011;23099;42.636;23.198;2023-03-05T13:01:13;20.58;;;10.95;;
37205;SDS011;23099;42.636;23.198;2023-03-05T13:03:49;22.15;;;12.55;;
37205;SDS011;23099;42.636;23.198;2023-03-05T13:06:24;21.38;;;10.85;;
37205;SDS011;23099;42.636;23.198;2023-03-05T13:08:58;21.20;;;9.88;;
37205;SDS011;23099;42.636;23.198;2023-03-05T13:11:26;20.45;;;9.60;;
37205;SDS011;23099;42.636;23.198;2023-03-05T13:13:55;16.92;;;8.77;;
37205;SDS011;23099;42.636;23.198;2023-03-05T13:16:23;18.25;;;9.60;;
37205;SDS011;23099;42.636;23.198;2023-03-05T13:21:19;19.80;;;8.80;;
37205;SDS011;23099;42.636;23.198;2023-03-05T13:23:49;16.73;;;7.53;;
37205;SDS011;23099;42.636;23.198;2023-03-05T13:26:23;16.38;;;7.90;;
37205;SDS011;23099;42.636;23.198;2023-03-05T13:29:02;22.67;;;10.65;;
37205;SDS011;23099;42.636;23.198;2023-03-05T13:31:33;18.75;;;8.23;;
37205;SDS011;23099;42.636;23.198;2023-03-05T13:34:06;15.10;;;7.13;;
37205;SDS011;23099;42.636;23.198;2023-03-05T13:36:36;20.98;;;12.02;;
37205;SDS011;23099;42.636;23.198;2023-03-05T13:39:03;28.23;;;10.88;;
37205;SDS011;23099;42.636;23.198;2023-03-05T13:41:33;17.85;;;8.55;;
37205;SDS011;23099;42.636;23.198;2023-03-05T13:44:00;15.75;;;7.47;;
37205;SDS011;23099;42.636;23.198;2023-03-05T13:46:29;16.83;;;8.98;;
37205;SDS011;23099;42.636;23.198;2023-03-05T13:48:58;21.90;;;11.18;;
37205;SDS011;23099;42.636;23.198;2023-03-05T13:51:42;21.17;;;9.88;;
37205;SDS011;23099;42.636;23.198;2023-03-05T13:54:11;27.67;;;11.45;;
37205;SDS011;23099;42.636;23.198;2023-03-05T13:56:48;25.70;;;12.38;;
37205;SDS011;23099;42.636;23.198;2023-03-05T13:59:17;24.63;;;12.02;;
37205;SDS011;23099;42.636;23.198;2023-03-05T14:01:45;22.35;;;12.02;;
37205;SDS011;23099;42.636;23.198;2023-03-05T14:04:17;23.48;;;11.40;;
37205;SDS011;23099;42.636;23.198;2023-03-05T14:06:47;27.33;;;13.50;;
37205;SDS011;23099;42.636;23.198;2023-03-05T14:09:18;23.75;;;12.70;;
37205;SDS011;23099;42.636;23.198;2023-03-05T14:11:55;22.80;;;12.00;;
37205;SDS011;23099;42.636;23.198;2023-03-05T14:14:24;30.23;;;16.48;;
37205;SDS011;23099;42.636;23.198;2023-03-05T14:16:52;32.90;;;15.95;;
37205;SDS011;23099;42.636;23.198;2023-03-05T14:19:32;24.05;;;12.27;;
37205;SDS011;23099;42.636;23.198;2023-03-05T14:22:01;23.58;;;10.60;;
37205;SDS011;23099;42.636;23.198;2023-03-05T14:24:28;23.53;;;10.33;;
37205;SDS011;23099;42.636;23.198;2023-03-05T14:26:58;25.70;;;11.18;;
37205;SDS011;23099;42.636;23.198;2023-03-05T14:29:27;52.17;;;25.17;;
37205;SDS011;23099;42.636;23.198;2023-03-05T14:31:55;26.70;;;13.27;;
37205;SDS011;23099;42.636;23.198;2023-03-05T14:34:25;21.27;;;10.68;;
37205;SDS011;23099;42.636;23.198;2023-03-05T14:36:56;22.77;;;11.23;;
37205;SDS011;23099;42.636;23.198;2023-03-05T14:39:25;26.40;;;11.10;;
37205;SDS011;23099;42.636;23.198;2023-03-05T14:44:50;23.48;;;10.73;;
37205;SDS011;23099;42.636;23.198;2023-03-05T14:47:16;29.25;;;14.13;;
37205;SDS011;23099;42.636;23.198;2023-03-05T14:49:43;26.33;;;11.95;;
37205;SDS011;23099;42.636;23.198;2023-03-05T14:52:11;24.77;;;11.57;;
37205;SDS011;23099;42.636;23.198;2023-03-05T14:54:40;25.42;;;11.40;;
37205;SDS011;23099;42.636;23.198;2023-03-05T14:57:09;23.83;;;11.10;;
37205;SDS011;23099;42.636;23.198;2023-03-05T14:59:40;22.92;;;11.07;;